sensor_id;sensor_type;location;lat;lon;timestamp;P1;durP1;ratioP1;P2;durP2;ratioP2
29452;SDS011;16424;50.956;5.320;2023-05-07T00:01:42;6.05;;;4.80;;
29452;SDS011;16424;50.956;5.320;2023-05-07T00:04:07;6.80;;;4.28;;
29452;SDS011;16424;50.956;5.320;2023-05-07T00:06:33;6.72;;;4.90;;
29452;SDS011;16424;50.956;5.320;2023-05-07T00:08:59;10.15;;;5.22;;
29452;SDS011;16424;50.956;5.320;2023-05-07T00:11:26;6.20;;;4.90;;
29452;SDS011;16424;50.956;5.320;2023-05-07T00:13:52;7.93;;;4.97;;
29452;SDS011;16424;50.956;5.320;2023-05-07T00:16:18;7.78;;;4.75;;
29452;SDS011;16424;50.956;5.320;2023-05-07T00:18:43;6.35;;;4.75;;
29452;SDS011;16424;50.956;5.320;2023-05-07T00:21:10;9.65;;;5.32;;
29452;SDS011;16424;50.956;5.320;2023-05-07T00:23:35;7.68;;;4.95;;
29452;SDS011;16424;50.956;5.320;2023-05-07T00:26:01;11.63;;;5.30;;
29452;SDS011;16424;50.956;5.320;2023-05-07T00:28:27;7.45;;;5.10;;
29452;SDS011;16424;50.956;5.320;2023-05-07T00:30:53;8.60;;;4.82;;
29452;SDS011;16424;50.956;5.320;2023-05-07T00:33:19;11.43;;;5.03;;
29452;SDS011;16424;50.956;5.320;2023-05-07T00:35:45;8.05;;;4.97;;
29452;SDS011;16424;50.956;5.320;2023-05-07T00:38:11;6.55;;;5.50;;
29452;SDS011;16424;50.956;5.320;2023-05-07T00:40:37;9.13;;;5.50;;
29452;SDS011;16424;50.956;5.320;2023-05-07T00:43:03;7.82;;;5.22;;
29452;SDS011;16424;50.956;5.320;2023-05-07T00:45:28;7.97;;;5.45;;
29452;SDS011;16424;50.956;5.320;2023-05-07T00:47:58;7.78;;;5.35;;
29452;SDS011;16424;50.956;5.320;2023-05-07T00:50:26;7.93;;;4.93;;
29452;SDS011;16424;50.956;5.320;2023-05-07T00:52:52;9.93;;;5.50;;
29452;SDS011;16424;50.956;5.320;2023-05-07T00:55:19;6.50;;;5.10;;
29452;SDS011;16424;50.956;5.320;2023-05-07T00:57:45;8.48;;;5.45;;
29452;SDS011;16424;50.956;5.320;2023-05-07T01:00:11;8.23;;;5.80;;
29452;SDS011;16424;50.956;5.320;2023-05-07T01:02:38;8.15;;;5.38;;
29452;SDS011;16424;50.956;5.320;2023-05-07T01:05:04;9.02;;;4.80;;
29452;SDS011;16424;50.956;5.320;2023-05-07T01:07:32;6.97;;;4.65;;
29452;SDS011;16424;50.956;5.320;2023-05-07T01:09:59;7.55;;;4.53;;
29452;SDS011;16424;50.956;5.320;2023-05-07T01:12:26;6.75;;;4.65;;
29452;SDS011;16424;50.956;5.320;2023-05-07T01:14:53;8.75;;;4.13;;
29452;SDS011;16424;50.956;5.320;2023-05-07T01:17:19;7.53;;;4.90;;
29452;SDS011;16424;50.956;5.320;2023-05-07T01:19:45;7.10;;;4.32;;
29452;SDS011;16424;50.956;5.320;2023-05-07T01:22:12;5.90;;;4.10;;
29452;SDS011;16424;50.956;5.320;2023-05-07T01:24:41;7.35;;;4.20;;
29452;SDS011;16424;50.956;5.320;2023-05-07T01:27:07;7.40;;;4.57;;
29452;SDS011;16424;50.956;5.320;2023-05-07T01:29:33;7.97;;;4.22;;
29452;SDS011;16424;50.956;5.320;2023-05-07T01:32:00;7.85;;;4.53;;
29452;SDS011;16424;50.956;5.320;2023-05-07T01:34:27;9.20;;;5.00;;
29452;SDS011;16424;50.956;5.320;2023-05-07T01:36:55;8.30;;;5.03;;
29452;SDS011;16424;50.956;5.320;2023-05-07T01:39:25;6.43;;;4.57;;
29452;SDS011;16424;50.956;5.320;2023-05-07T01:41:56;8.55;;;4.93;;
29452;SDS011;16424;50.956;5.320;2023-05-07T01:44:22;10.07;;;5.22;;
29452;SDS011;16424;50.956;5.320;2023-05-07T01:46:48;6.47;;;4.82;;
29452;SDS011;16424;50.956;5.320;2023-05-07T01:49:15;9.40;;;5.15;;
29452;SDS011;16424;50.956;5.320;2023-05-07T01:51:41;6.50;;;5.18;;
29452;SDS011;16424;50.956;5.320;2023-05-07T01:54:08;10.50;;;5.28;;
29452;SDS011;16424;50.956;5.320;2023-05-07T01:56:34;8.10;;;5.05;;
29452;SDS011;16424;50.956;5.320;2023-05-07T01:59:00;7.60;;;5.38;;
29452;SDS011;16424;50.956;5.320;2023-05-07T02:01:26;7.93;;;5.05;;
29452;SDS011;16424;50.956;5.320;2023-05-07T02:03:52;8.57;;;5.15;;
29452;SDS011;16424;50.956;5.320;2023-05-07T02:06:18;8.07;;;5.20;;
29452;SDS011;16424;50.956;5.320;2023-05-07T02:08:44;9.32;;;5.43;;
29452;SDS011;16424;50.956;5.320;2023-05-07T02:11:11;6.93;;;4.68;;
29452;SDS011;16424;50.956;5.320;2023-05-07T02:13:36;6.18;;;5.28;;
29452;SDS011;16424;50.956;5.320;2023-05-07T02:16:02;7.18;;;5.10;;
29452;SDS011;16424;50.956;5.320;2023-05-07T02:18:28;8.30;;;6.03;;
29452;SDS011;16424;50.956;5.320;2023-05-07T02:20:54;6.82;;;5.07;;
29452;SDS011;16424;50.956;5.320;2023-05-07T02:23:20;7.60;;;5.07;;
29452;SDS011;16424;50.956;5.320;2023-05-07T02:25:45;8.65;;;6.07;;
29452;SDS011;16424;50.956;5.320;2023-05-07T02:28:11;11.30;;;5.65;;
29452;SDS011;16424;50.956;5.320;2023-05-07T02:30:37;8.52;;;4.93;;
29452;SDS011;16424;50.956;5.320;2023-05-07T02:33:04;8.05;;;5.18;;
29452;SDS011;16424;50.956;5.320;2023-05-07T02:35:29;8.88;;;5.47;;
29452;SDS011;16424;50.956;5.320;2023-05-07T02:37:55;7.55;;;6.32;;
29452;SDS011;16424;50.956;5.320;2023-05-07T02:40:21;9.63;;;5.25;;
29452;SDS011;16424;50.956;5.320;2023-05-07T02:42:46;10.90;;;5.35;;
29452;SDS011;16424;50.956;5.320;2023-05-07T02:45:12;8.10;;;5.22;;
29452;SDS011;16424;50.956;5.320;2023-05-07T02:47:39;7.63;;;4.90;;
29452;SDS011;16424;50.956;5.320;2023-05-07T02:50:05;10.18;;;5.07;;
29452;SDS011;16424;50.956;5.320;2023-05-07T02:52:31;8.13;;;5.15;;
29452;SDS011;16424;50.956;5.320;2023-05-07T02:54:57;8.10;;;5.20;;
29452;SDS011;16424;50.956;5.320;2023-05-07T02:57:22;10.50;;;5.47;;
29452;SDS011;16424;50.956;5.320;2023-05-07T02:59:48;8.00;;;5.45;;
29452;SDS011;16424;50.956;5.320;2023-05-07T03:02:13;9.00;;;5.57;;
29452;SDS011;16424;50.956;5.320;2023-05-07T03:04:39;15.60;;;9.45;;
29452;SDS011;16424;50.956;5.320;2023-05-07T03:07:05;10.85;;;5.65;;
29452;SDS011;16424;50.956;5.320;2023-05-07T03:09:31;8.00;;;5.15;;
29452;SDS011;16424;50.956;5.320;2023-05-07T03:11:56;8.43;;;5.47;;
29452;SDS011;16424;50.956;5.320;2023-05-07T03:14:22;11.15;;;6.28;;
29452;SDS011;16424;50.956;5.320;2023-05-07T03:16:48;14.27;;;5.82;;
29452;SDS011;16424;50.956;5.320;2023-05-07T03:19:14;8.38;;;5.97;;
29452;SDS011;16424;50.956;5.320;2023-05-07T03:21:40;10.25;;;6.45;;
29452;SDS011;16424;50.956;5.320;2023-05-07T03:24:06;8.02;;;5.68;;
29452;SDS011;16424;50.956;5.320;2023-05-07T03:26:32;8.93;;;5.60;;
29452;SDS011;16424;50.956;5.320;2023-05-07T03:28:57;8.43;;;5.90;;
29452;SDS011;16424;50.956;5.320;2023-05-07T03:31:23;10.30;;;6.03;;
29452;SDS011;16424;50.956;5.320;2023-05-07T03:33:52;11.80;;;5.90;;
29452;SDS011;16424;50.956;5.320;2023-05-07T03:36:19;9.63;;;6.32;;
29452;SDS011;16424;50.956;5.320;2023-05-07T03:38:45;8.52;;;5.82;;
29452;SDS011;16424;50.956;5.320;2023-05-07T03:41:11;10.23;;;6.00;;
29452;SDS011;16424;50.956;5.320;2023-05-07T03:43:37;10.00;;;6.57;;
29452;SDS011;16424;50.956;5.320;2023-05-07T03:46:03;9.77;;;5.97;;
29452;SDS011;16424;50.956;5.320;2023-05-07T03:48:28;10.93;;;5.55;;
29452;SDS011;16424;50.956;5.320;2023-05-07T03:50:54;10.02;;;6.25;;
29452;SDS011;16424;50.956;5.320;2023-05-07T03:53:20;8.90;;;5.82;;
29452;SDS011;16424;50.956;5.320;2023-05-07T03:55:46;10.57;;;6.10;;
29452;SDS011;16424;50.956;5.320;2023-05-07T03:58:12;12.77;;;5.70;;
29452;SDS011;16424;50.956;5.320;2023-05-07T04:00:37;7.05;;;5.63;;
29452;SDS011;16424;50.956;5.320;2023-05-07T04:03:04;8.68;;;6.15;;
29452;SDS011;16424;50.956;5.320;2023-05-07T04:05:30;8.98;;;5.32;;
29452;SDS011;16424;50.956;5.320;2023-05-07T04:07:59;8.43;;;5.32;;
29452;SDS011;16424;50.956;5.320;2023-05-07T04:10:26;8.88;;;5.18;;
29452;SDS011;16424;50.956;5.320;2023-05-07T04:12:53;11.73;;;5.57;;
29452;SDS011;16424;50.956;5.320;2023-05-07T04:15:19;9.23;;;4.95;;
29452;SDS011;16424;50.956;5.320;2023-05-07T04:17:44;10.35;;;5.18;;
29452;SDS011;16424;50.956;5.320;2023-05-07T04:20:13;10.43;;;6.32;;
29452;SDS011;16424;50.956;5.320;2023-05-07T04:22:40;7.22;;;5.53;;
29452;SDS011;16424;50.956;5.320;2023-05-07T04:25:06;8.88;;;5.82;;
29452;SDS011;16424;50.956;5.320;2023-05-07T04:27:34;9.18;;;6.45;;
29452;SDS011;16424;50.956;5.320;2023-05-07T04:30:00;10.93;;;6.28;;
29452;SDS011;16424;50.956;5.320;2023-05-07T04:32:26;12.88;;;5.85;;
29452;SDS011;16424;50.956;5.320;2023-05-07T04:34:54;9.20;;;6.13;;
29452;SDS011;16424;50.956;5.320;2023-05-07T04:37:20;11.05;;;6.85;;
29452;SDS011;16424;50.956;5.320;2023-05-07T04:39:46;10.27;;;6.25;;
29452;SDS011;16424;50.956;5.320;2023-05-07T04:42:15;9.68;;;6.15;;
29452;SDS011;16424;50.956;5.320;2023-05-07T04:44:42;10.27;;;6.80;;
29452;SDS011;16424;50.956;5.320;2023-05-07T04:47:08;10.70;;;6.68;;
29452;SDS011;16424;50.956;5.320;2023-05-07T04:49:33;9.68;;;7.05;;
29452;SDS011;16424;50.956;5.320;2023-05-07T04:51:59;11.13;;;6.63;;
29452;SDS011;16424;50.956;5.320;2023-05-07T04:54:25;11.23;;;6.70;;
29452;SDS011;16424;50.956;5.320;2023-05-07T04:56:51;11.90;;;7.13;;
29452;SDS011;16424;50.956;5.320;2023-05-07T04:59:17;10.35;;;6.85;;
29452;SDS011;16424;50.956;5.320;2023-05-07T05:01:43;10.30;;;6.93;;
29452;SDS011;16424;50.956;5.320;2023-05-07T05:04:08;9.00;;;6.18;;
29452;SDS011;16424;50.956;5.320;2023-05-07T05:06:35;7.90;;;6.18;;
29452;SDS011;16424;50.956;5.320;2023-05-07T05:09:00;13.50;;;6.15;;
29452;SDS011;16424;50.956;5.320;2023-05-07T05:11:26;7.10;;;5.80;;
29452;SDS011;16424;50.956;5.320;2023-05-07T05:13:52;13.43;;;6.97;;
29452;SDS011;16424;50.956;5.320;2023-05-07T05:16:17;9.48;;;6.55;;
29452;SDS011;16424;50.956;5.320;2023-05-07T05:18:43;6.47;;;5.35;;
29452;SDS011;16424;50.956;5.320;2023-05-07T05:21:09;7.25;;;5.68;;
29452;SDS011;16424;50.956;5.320;2023-05-07T05:23:34;7.72;;;5.47;;
29452;SDS011;16424;50.956;5.320;2023-05-07T05:26:00;6.95;;;5.53;;
29452;SDS011;16424;50.956;5.320;2023-05-07T05:28:25;11.13;;;5.18;;
29452;SDS011;16424;50.956;5.320;2023-05-07T05:30:52;8.40;;;5.53;;
29452;SDS011;16424;50.956;5.320;2023-05-07T05:33:18;7.15;;;5.15;;
29452;SDS011;16424;50.956;5.320;2023-05-07T05:35:44;7.68;;;5.05;;
29452;SDS011;16424;50.956;5.320;2023-05-07T05:38:10;8.63;;;6.20;;
29452;SDS011;16424;50.956;5.320;2023-05-07T05:40:35;6.95;;;5.13;;
29452;SDS011;16424;50.956;5.320;2023-05-07T05:43:01;8.20;;;5.65;;
29452;SDS011;16424;50.956;5.320;2023-05-07T05:45:27;9.30;;;6.00;;
29452;SDS011;16424;50.956;5.320;2023-05-07T05:47:52;12.75;;;5.95;;
29452;SDS011;16424;50.956;5.320;2023-05-07T05:50:18;8.60;;;5.95;;
29452;SDS011;16424;50.956;5.320;2023-05-07T05:52:44;8.50;;;4.95;;
29452;SDS011;16424;50.956;5.320;2023-05-07T05:55:09;8.65;;;5.35;;
29452;SDS011;16424;50.956;5.320;2023-05-07T05:57:35;9.57;;;5.38;;
29452;SDS011;16424;50.956;5.320;2023-05-07T06:00:01;9.57;;;5.68;;
29452;SDS011;16424;50.956;5.320;2023-05-07T06:02:27;11.77;;;5.40;;
29452;SDS011;16424;50.956;5.320;2023-05-07T06:04:53;9.48;;;5.70;;
29452;SDS011;16424;50.956;5.320;2023-05-07T06:07:19;7.65;;;5.25;;
29452;SDS011;16424;50.956;5.320;2023-05-07T06:09:44;7.60;;;5.32;;
29452;SDS011;16424;50.956;5.320;2023-05-07T06:12:10;8.00;;;5.50;;
29452;SDS011;16424;50.956;5.320;2023-05-07T06:14:38;8.10;;;5.57;;
29452;SDS011;16424;50.956;5.320;2023-05-07T06:17:03;7.97;;;4.88;;
29452;SDS011;16424;50.956;5.320;2023-05-07T06:19:29;9.23;;;5.63;;
29452;SDS011;16424;50.956;5.320;2023-05-07T06:21:54;6.40;;;4.72;;
29452;SDS011;16424;50.956;5.320;2023-05-07T06:24:23;8.13;;;5.90;;
29452;SDS011;16424;50.956;5.320;2023-05-07T06:26:49;6.85;;;5.25;;
29452;SDS011;16424;50.956;5.320;2023-05-07T06:29:15;11.10;;;4.93;;
29452;SDS011;16424;50.956;5.320;2023-05-07T06:31:40;11.45;;;5.03;;
29452;SDS011;16424;50.956;5.320;2023-05-07T06:34:06;6.80;;;5.10;;
29452;SDS011;16424;50.956;5.320;2023-05-07T06:36:32;6.05;;;4.88;;
29452;SDS011;16424;50.956;5.320;2023-05-07T06:38:59;6.63;;;5.65;;
29452;SDS011;16424;50.956;5.320;2023-05-07T06:41:25;6.35;;;4.68;;
29452;SDS011;16424;50.956;5.320;2023-05-07T06:43:51;6.13;;;4.82;;
29452;SDS011;16424;50.956;5.320;2023-05-07T06:46:16;6.15;;;4.40;;
29452;SDS011;16424;50.956;5.320;2023-05-07T06:48:42;6.22;;;4.70;;
29452;SDS011;16424;50.956;5.320;2023-05-07T06:51:07;8.23;;;4.72;;
29452;SDS011;16424;50.956;5.320;2023-05-07T06:53:34;11.85;;;5.28;;
29452;SDS011;16424;50.956;5.320;2023-05-07T06:56:00;8.65;;;4.53;;
29452;SDS011;16424;50.956;5.320;2023-05-07T06:58:26;11.35;;;4.75;;
29452;SDS011;16424;50.956;5.320;2023-05-07T07:00:51;10.55;;;4.93;;
29452;SDS011;16424;50.956;5.320;2023-05-07T07:03:17;7.18;;;4.72;;
29452;SDS011;16424;50.956;5.320;2023-05-07T07:05:43;6.32;;;4.07;;
29452;SDS011;16424;50.956;5.320;2023-05-07T07:08:09;9.45;;;4.55;;
29452;SDS011;16424;50.956;5.320;2023-05-07T07:10:35;7.40;;;4.28;;
29452;SDS011;16424;50.956;5.320;2023-05-07T07:13:00;5.22;;;4.05;;
29452;SDS011;16424;50.956;5.320;2023-05-07T07:15:26;5.55;;;4.22;;
29452;SDS011;16424;50.956;5.320;2023-05-07T07:17:52;6.30;;;4.07;;
29452;SDS011;16424;50.956;5.320;2023-05-07T07:20:17;5.03;;;3.92;;
29452;SDS011;16424;50.956;5.320;2023-05-07T07:22:43;5.43;;;3.55;;
29452;SDS011;16424;50.956;5.320;2023-05-07T07:25:09;5.75;;;4.00;;
29452;SDS011;16424;50.956;5.320;2023-05-07T07:27:36;6.22;;;3.95;;
29452;SDS011;16424;50.956;5.320;2023-05-07T07:30:01;5.35;;;3.10;;
29452;SDS011;16424;50.956;5.320;2023-05-07T07:32:27;5.40;;;3.50;;
29452;SDS011;16424;50.956;5.320;2023-05-07T07:34:53;7.20;;;4.20;;
29452;SDS011;16424;50.956;5.320;2023-05-07T07:37:18;7.15;;;3.60;;
29452;SDS011;16424;50.956;5.320;2023-05-07T07:39:44;4.70;;;3.42;;
29452;SDS011;16424;50.956;5.320;2023-05-07T07:42:10;6.72;;;3.72;;
29452;SDS011;16424;50.956;5.320;2023-05-07T07:44:35;4.28;;;3.30;;
29452;SDS011;16424;50.956;5.320;2023-05-07T07:47:01;6.25;;;3.88;;
29452;SDS011;16424;50.956;5.320;2023-05-07T07:49:27;8.05;;;3.55;;
29452;SDS011;16424;50.956;5.320;2023-05-07T07:51:52;4.53;;;2.90;;
29452;SDS011;16424;50.956;5.320;2023-05-07T07:54:18;4.95;;;3.05;;
29452;SDS011;16424;50.956;5.320;2023-05-07T07:56:44;5.72;;;3.35;;
29452;SDS011;16424;50.956;5.320;2023-05-07T07:59:09;6.05;;;3.30;;
29452;SDS011;16424;50.956;5.320;2023-05-07T08:01:35;4.78;;;2.88;;
29452;SDS011;16424;50.956;5.320;2023-05-07T08:04:01;5.57;;;3.42;;
29452;SDS011;16424;50.956;5.320;2023-05-07T08:06:28;9.25;;;3.75;;
29452;SDS011;16424;50.956;5.320;2023-05-07T08:08:54;5.45;;;3.50;;
29452;SDS011;16424;50.956;5.320;2023-05-07T08:11:20;8.15;;;3.60;;
29452;SDS011;16424;50.956;5.320;2023-05-07T08:13:46;5.68;;;3.47;;
29452;SDS011;16424;50.956;5.320;2023-05-07T08:16:13;6.63;;;3.45;;
29452;SDS011;16424;50.956;5.320;2023-05-07T08:18:39;5.43;;;3.08;;
29452;SDS011;16424;50.956;5.320;2023-05-07T08:21:04;5.90;;;3.10;;
29452;SDS011;16424;50.956;5.320;2023-05-07T08:23:30;4.75;;;2.67;;
29452;SDS011;16424;50.956;5.320;2023-05-07T08:25:56;5.45;;;2.95;;
29452;SDS011;16424;50.956;5.320;2023-05-07T08:28:22;4.38;;;3.28;;
29452;SDS011;16424;50.956;5.320;2023-05-07T08:30:49;6.13;;;2.67;;
29452;SDS011;16424;50.956;5.320;2023-05-07T08:33:15;3.47;;;2.38;;
29452;SDS011;16424;50.956;5.320;2023-05-07T08:35:41;7.45;;;2.90;;
29452;SDS011;16424;50.956;5.320;2023-05-07T08:38:06;5.65;;;2.72;;
29452;SDS011;16424;50.956;5.320;2023-05-07T08:40:34;4.68;;;2.50;;
29452;SDS011;16424;50.956;5.320;2023-05-07T08:43:04;6.28;;;2.80;;
29452;SDS011;16424;50.956;5.320;2023-05-07T08:45:31;5.50;;;2.72;;
29452;SDS011;16424;50.956;5.320;2023-05-07T08:47:59;8.00;;;2.75;;
29452;SDS011;16424;50.956;5.320;2023-05-07T08:50:27;6.75;;;3.00;;
29452;SDS011;16424;50.956;5.320;2023-05-07T08:52:53;6.00;;;2.83;;
29452;SDS011;16424;50.956;5.320;2023-05-07T08:55:21;5.60;;;3.33;;
29452;SDS011;16424;50.956;5.320;2023-05-07T08:57:47;5.95;;;2.67;;
29452;SDS011;16424;50.956;5.320;2023-05-07T09:00:13;8.45;;;3.97;;
29452;SDS011;16424;50.956;5.320;2023-05-07T09:02:39;4.28;;;3.10;;
29452;SDS011;16424;50.956;5.320;2023-05-07T09:05:05;5.75;;;2.95;;
29452;SDS011;16424;50.956;5.320;2023-05-07T09:07:31;6.97;;;3.15;;
29452;SDS011;16424;50.956;5.320;2023-05-07T09:09:57;6.75;;;3.03;;
29452;SDS011;16424;50.956;5.320;2023-05-07T09:12:23;7.80;;;3.10;;
29452;SDS011;16424;50.956;5.320;2023-05-07T09:14:49;8.75;;;3.30;;
29452;SDS011;16424;50.956;5.320;2023-05-07T09:17:18;5.38;;;3.35;;
29452;SDS011;16424;50.956;5.320;2023-05-07T09:19:44;9.63;;;3.35;;
29452;SDS011;16424;50.956;5.320;2023-05-07T09:22:13;6.43;;;2.85;;
29452;SDS011;16424;50.956;5.320;2023-05-07T09:24:39;7.03;;;3.70;;
29452;SDS011;16424;50.956;5.320;2023-05-07T09:27:05;5.47;;;2.90;;
29452;SDS011;16424;50.956;5.320;2023-05-07T09:29:32;7.95;;;3.08;;
29452;SDS011;16424;50.956;5.320;2023-05-07T09:32:07;5.35;;;2.90;;
29452;SDS011;16424;50.956;5.320;2023-05-07T09:34:33;5.88;;;3.38;;
29452;SDS011;16424;50.956;5.320;2023-05-07T09:37:02;6.00;;;3.47;;
29452;SDS011;16424;50.956;5.320;2023-05-07T09:39:41;3.88;;;2.80;;
29452;SDS011;16424;50.956;5.320;2023-05-07T09:42:08;5.70;;;3.70;;
29452;SDS011;16424;50.956;5.320;2023-05-07T09:44:35;7.00;;;4.13;;
29452;SDS011;16424;50.956;5.320;2023-05-07T09:47:01;5.85;;;3.50;;
29452;SDS011;16424;50.956;5.320;2023-05-07T09:49:30;5.35;;;3.85;;
29452;SDS011;16424;50.956;5.320;2023-05-07T09:52:03;3.95;;;2.42;;
29452;SDS011;16424;50.956;5.320;2023-05-07T09:54:35;5.55;;;2.70;;
29452;SDS011;16424;50.956;5.320;2023-05-07T09:57:03;6.65;;;3.83;;
29452;SDS011;16424;50.956;5.320;2023-05-07T09:59:29;5.47;;;2.85;;
29452;SDS011;16424;50.956;5.320;2023-05-07T10:01:58;6.28;;;3.03;;
29452;SDS011;16424;50.956;5.320;2023-05-07T10:04:25;7.97;;;3.20;;
29452;SDS011;16424;50.956;5.320;2023-05-07T10:06:51;6.38;;;2.63;;
29452;SDS011;16424;50.956;5.320;2023-05-07T10:09:18;8.25;;;3.10;;
29452;SDS011;16424;50.956;5.320;2023-05-07T10:11:45;5.20;;;2.83;;
29452;SDS011;16424;50.956;5.320;2023-05-07T10:14:13;8.70;;;3.65;;
29452;SDS011;16424;50.956;5.320;2023-05-07T10:16:39;10.57;;;3.78;;
29452;SDS011;16424;50.956;5.320;2023-05-07T10:19:06;8.15;;;3.20;;
29452;SDS011;16424;50.956;5.320;2023-05-07T10:21:38;6.63;;;3.33;;
29452;SDS011;16424;50.956;5.320;2023-05-07T10:24:08;9.25;;;3.22;;
29452;SDS011;16424;50.956;5.320;2023-05-07T10:26:42;9.05;;;3.72;;
29452;SDS011;16424;50.956;5.320;2023-05-07T10:29:12;12.77;;;3.58;;
29452;SDS011;16424;50.956;5.320;2023-05-07T10:32:08;6.75;;;3.10;;
29452;SDS011;16424;50.956;5.320;2023-05-07T10:34:56;7.18;;;3.90;;
29452;SDS011;16424;50.956;5.320;2023-05-07T10:37:25;13.05;;;4.25;;
29452;SDS011;16424;50.956;5.320;2023-05-07T10:39:51;7.95;;;4.13;;
29452;SDS011;16424;50.956;5.320;2023-05-07T10:42:17;9.93;;;4.18;;
29452;SDS011;16424;50.956;5.320;2023-05-07T10:44:43;12.20;;;4.93;;
29452;SDS011;16424;50.956;5.320;2023-05-07T10:47:09;9.35;;;4.75;;
29452;SDS011;16424;50.956;5.320;2023-05-07T10:52:31;7.75;;;4.15;;
29452;SDS011;16424;50.956;5.320;2023-05-07T10:57:46;11.18;;;5.32;;
29452;SDS011;16424;50.956;5.320;2023-05-07T11:05:25;7.78;;;3.97;;
29452;SDS011;16424;50.956;5.320;2023-05-07T11:07:55;9.82;;;4.95;;
29452;SDS011;16424;50.956;5.320;2023-05-07T11:10:22;7.97;;;4.10;;
29452;SDS011;16424;50.956;5.320;2023-05-07T11:12:52;7.32;;;3.72;;
29452;SDS011;16424;50.956;5.320;2023-05-07T11:15:37;7.38;;;4.00;;
29452;SDS011;16424;50.956;5.320;2023-05-07T11:18:04;7.03;;;3.30;;
29452;SDS011;16424;50.956;5.320;2023-05-07T11:26:04;13.23;;;4.27;;
29452;SDS011;16424;50.956;5.320;2023-05-07T11:28:32;9.70;;;4.00;;
29452;SDS011;16424;50.956;5.320;2023-05-07T11:31:05;6.88;;;3.47;;
29452;SDS011;16424;50.956;5.320;2023-05-07T11:33:31;9.65;;;3.55;;
29452;SDS011;16424;50.956;5.320;2023-05-07T11:35:57;7.35;;;3.33;;
29452;SDS011;16424;50.956;5.320;2023-05-07T11:38:24;7.55;;;3.20;;
29452;SDS011;16424;50.956;5.320;2023-05-07T11:40:51;12.38;;;3.80;;
29452;SDS011;16424;50.956;5.320;2023-05-07T11:43:17;9.18;;;3.60;;
29452;SDS011;16424;50.956;5.320;2023-05-07T11:45:46;6.82;;;3.70;;
29452;SDS011;16424;50.956;5.320;2023-05-07T11:48:13;7.90;;;4.03;;
29452;SDS011;16424;50.956;5.320;2023-05-07T11:50:53;8.07;;;3.58;;
29452;SDS011;16424;50.956;5.320;2023-05-07T11:53:25;9.13;;;4.13;;
29452;SDS011;16424;50.956;5.320;2023-05-07T11:55:55;6.75;;;3.00;;
29452;SDS011;16424;50.956;5.320;2023-05-07T11:58:21;8.55;;;3.67;;
29452;SDS011;16424;50.956;5.320;2023-05-07T12:00:52;7.47;;;3.15;;
29452;SDS011;16424;50.956;5.320;2023-05-07T12:03:18;8.13;;;3.47;;
29452;SDS011;16424;50.956;5.320;2023-05-07T12:05:45;7.78;;;3.40;;
29452;SDS011;16424;50.956;5.320;2023-05-07T12:08:14;8.45;;;3.35;;
29452;SDS011;16424;50.956;5.320;2023-05-07T12:10:41;7.25;;;3.72;;
29452;SDS011;16424;50.956;5.320;2023-05-07T12:13:25;8.45;;;3.72;;
29452;SDS011;16424;50.956;5.320;2023-05-07T12:15:52;7.03;;;3.47;;
29452;SDS011;16424;50.956;5.320;2023-05-07T12:18:18;7.15;;;3.67;;
29452;SDS011;16424;50.956;5.320;2023-05-07T12:20:44;7.43;;;3.08;;
29452;SDS011;16424;50.956;5.320;2023-05-07T12:23:11;6.82;;;3.08;;
29452;SDS011;16424;50.956;5.320;2023-05-07T12:25:37;9.45;;;3.53;;
29452;SDS011;16424;50.956;5.320;2023-05-07T12:28:04;9.90;;;3.40;;
29452;SDS011;16424;50.956;5.320;2023-05-07T12:30:37;8.05;;;3.28;;
29452;SDS011;16424;50.956;5.320;2023-05-07T12:33:04;6.45;;;3.20;;
29452;SDS011;16424;50.956;5.320;2023-05-07T12:35:30;8.93;;;3.67;;
29452;SDS011;16424;50.956;5.320;2023-05-07T12:37:57;10.18;;;3.83;;
29452;SDS011;16424;50.956;5.320;2023-05-07T12:40:25;9.43;;;3.33;;
29452;SDS011;16424;50.956;5.320;2023-05-07T12:43:04;9.63;;;3.50;;
29452;SDS011;16424;50.956;5.320;2023-05-07T12:45:29;7.68;;;2.80;;
29452;SDS011;16424;50.956;5.320;2023-05-07T12:47:55;7.05;;;3.10;;
29452;SDS011;16424;50.956;5.320;2023-05-07T12:50:25;4.28;;;2.83;;
29452;SDS011;16424;50.956;5.320;2023-05-07T12:52:55;4.10;;;2.42;;
29452;SDS011;16424;50.956;5.320;2023-05-07T12:55:21;4.63;;;2.28;;
29452;SDS011;16424;50.956;5.320;2023-05-07T12:57:50;6.93;;;2.30;;
29452;SDS011;16424;50.956;5.320;2023-05-07T13:00:16;6.22;;;2.53;;
29452;SDS011;16424;50.956;5.320;2023-05-07T13:02:43;6.47;;;2.20;;
29452;SDS011;16424;50.956;5.320;2023-05-07T13:05:11;5.53;;;2.05;;
29452;SDS011;16424;50.956;5.320;2023-05-07T13:07:37;4.15;;;2.08;;
29452;SDS011;16424;50.956;5.320;2023-05-07T13:10:03;4.28;;;2.20;;
29452;SDS011;16424;50.956;5.320;2023-05-07T13:12:29;4.43;;;2.33;;
29452;SDS011;16424;50.956;5.320;2023-05-07T13:14:55;8.55;;;2.80;;
29452;SDS011;16424;50.956;5.320;2023-05-07T13:17:21;7.05;;;2.78;;
29452;SDS011;16424;50.956;5.320;2023-05-07T13:19:46;7.80;;;2.80;;
29452;SDS011;16424;50.956;5.320;2023-05-07T13:22:12;7.50;;;2.05;;
29452;SDS011;16424;50.956;5.320;2023-05-07T13:24:38;4.57;;;2.08;;
29452;SDS011;16424;50.956;5.320;2023-05-07T13:27:06;9.20;;;2.40;;
29452;SDS011;16424;50.956;5.320;2023-05-07T13:29:32;5.50;;;2.30;;
29452;SDS011;16424;50.956;5.320;2023-05-07T13:31:57;5.03;;;2.13;;
29452;SDS011;16424;50.956;5.320;2023-05-07T13:34:23;5.15;;;2.10;;
29452;SDS011;16424;50.956;5.320;2023-05-07T13:36:49;5.00;;;1.92;;
29452;SDS011;16424;50.956;5.320;2023-05-07T13:39:15;5.68;;;2.10;;
29452;SDS011;16424;50.956;5.320;2023-05-07T13:41:41;5.82;;;1.95;;
29452;SDS011;16424;50.956;5.320;2023-05-07T13:44:07;5.75;;;1.95;;
29452;SDS011;16424;50.956;5.320;2023-05-07T13:46:32;4.82;;;1.70;;
29452;SDS011;16424;50.956;5.320;2023-05-07T13:48:58;6.00;;;2.30;;
29452;SDS011;16424;50.956;5.320;2023-05-07T13:51:24;10.68;;;1.75;;
29452;SDS011;16424;50.956;5.320;2023-05-07T13:53:50;3.60;;;1.80;;
29452;SDS011;16424;50.956;5.320;2023-05-07T13:56:17;7.20;;;2.20;;
29452;SDS011;16424;50.956;5.320;2023-05-07T13:58:43;4.43;;;2.42;;
29452;SDS011;16424;50.956;5.320;2023-05-07T14:01:08;5.43;;;1.90;;
29452;SDS011;16424;50.956;5.320;2023-05-07T14:03:34;5.32;;;2.10;;
29452;SDS011;16424;50.956;5.320;2023-05-07T14:06:02;4.90;;;2.33;;
29452;SDS011;16424;50.956;5.320;2023-05-07T14:08:28;6.93;;;2.15;;
29452;SDS011;16424;50.956;5.320;2023-05-07T14:10:54;6.45;;;2.58;;
29452;SDS011;16424;50.956;5.320;2023-05-07T14:13:20;4.90;;;2.20;;
29452;SDS011;16424;50.956;5.320;2023-05-07T14:15:46;4.43;;;2.60;;
29452;SDS011;16424;50.956;5.320;2023-05-07T14:18:13;4.40;;;1.85;;
29452;SDS011;16424;50.956;5.320;2023-05-07T14:20:39;6.43;;;2.35;;
29452;SDS011;16424;50.956;5.320;2023-05-07T14:23:05;7.38;;;2.47;;
29452;SDS011;16424;50.956;5.320;2023-05-07T14:25:31;3.63;;;1.92;;
29452;SDS011;16424;50.956;5.320;2023-05-07T14:27:57;6.60;;;2.08;;
29452;SDS011;16424;50.956;5.320;2023-05-07T14:30:22;5.45;;;2.20;;
29452;SDS011;16424;50.956;5.320;2023-05-07T14:32:49;5.20;;;1.90;;
29452;SDS011;16424;50.956;5.320;2023-05-07T14:35:15;5.78;;;2.20;;
29452;SDS011;16424;50.956;5.320;2023-05-07T14:37:41;6.10;;;1.90;;
29452;SDS011;16424;50.956;5.320;2023-05-07T14:40:07;4.70;;;2.10;;
29452;SDS011;16424;50.956;5.320;2023-05-07T14:42:33;5.03;;;2.10;;
29452;SDS011;16424;50.956;5.320;2023-05-07T14:44:59;6.30;;;1.80;;
29452;SDS011;16424;50.956;5.320;2023-05-07T14:47:25;4.25;;;1.80;;
29452;SDS011;16424;50.956;5.320;2023-05-07T14:49:50;4.55;;;1.95;;
29452;SDS011;16424;50.956;5.320;2023-05-07T14:52:18;3.15;;;1.77;;
29452;SDS011;16424;50.956;5.320;2023-05-07T14:54:43;5.35;;;2.33;;
29452;SDS011;16424;50.956;5.320;2023-05-07T14:57:09;3.45;;;1.60;;
29452;SDS011;16424;50.956;5.320;2023-05-07T14:59:38;3.53;;;1.60;;